sensor_id;sensor_type;location;lat;lon;timestamp;temperature;humidity
21318;DHT22;10818;50.830;6.524;2022-12-20T00:04:30;13.00;99.90
21318;DHT22;10818;50.830;6.524;2022-12-20T00:09:31;12.80;99.90
21318;DHT22;10818;50.830;6.524;2022-12-20T00:14:31;12.90;99.90
21318;DHT22;10818;50.830;6.524;2022-12-20T00:19:31;12.80;99.90
21318;DHT22;10818;50.830;6.524;2022-12-20T00:24:32;12.80;99.90
21318;DHT22;10818;50.830;6.524;2022-12-20T00:29:32;12.90;99.90
21318;DHT22;10818;50.830;6.524;2022-12-20T00:34:33;12.80;99.90
21318;DHT22;10818;50.830;6.524;2022-12-20T00:39:33;12.90;99.90
21318;DHT22;10818;50.830;6.524;2022-12-20T00:44:34;12.90;99.90
21318;DHT22;10818;50.830;6.524;2022-12-20T00:49:34;12.90;99.90
21318;DHT22;10818;50.830;6.524;2022-12-20T00:54:34;12.80;99.90
21318;DHT22;10818;50.830;6.524;2022-12-20T00:59:35;12.90;99.90
21318;DHT22;10818;50.830;6.524;2022-12-20T01:04:35;12.90;99.90
21318;DHT22;10818;50.830;6.524;2022-12-20T01:09:37;12.90;99.90
21318;DHT22;10818;50.830;6.524;2022-12-20T01:14:37;12.90;99.90
21318;DHT22;10818;50.830;6.524;2022-12-20T01:19:38;12.80;99.90
21318;DHT22;10818;50.830;6.524;2022-12-20T01:24:39;12.80;99.90
21318;DHT22;10818;50.830;6.524;2022-12-20T01:29:39;12.70;99.90
21318;DHT22;10818;50.830;6.524;2022-12-20T01:34:40;12.60;99.90
21318;DHT22;10818;50.830;6.524;2022-12-20T01:39:40;12.70;99.90
21318;DHT22;10818;50.830;6.524;2022-12-20T01:49:41;12.60;99.90
21318;DHT22;10818;50.830;6.524;2022-12-20T01:54:45;12.60;99.90
21318;DHT22;10818;50.830;6.524;2022-12-20T01:59:47;12.50;99.90
21318;DHT22;10818;50.830;6.524;2022-12-20T02:04:49;12.60;99.90
21318;DHT22;10818;50.830;6.524;2022-12-20T02:09:50;12.50;99.90
21318;DHT22;10818;50.830;6.524;2022-12-20T02:15:03;12.50;99.90
21318;DHT22;10818;50.830;6.524;2022-12-20T02:25:32;12.40;99.90
21318;DHT22;10818;50.830;6.524;2022-12-20T02:30:38;12.50;99.90
21318;DHT22;10818;50.830;6.524;2022-12-20T02:35:41;12.50;99.90
21318;DHT22;10818;50.830;6.524;2022-12-20T02:40:41;12.40;99.90
21318;DHT22;10818;50.830;6.524;2022-12-20T02:45:43;12.40;99.90
21318;DHT22;10818;50.830;6.524;2022-12-20T02:50:44;12.40;99.90
21318;DHT22;10818;50.830;6.524;2022-12-20T03:00:46;12.40;99.90
21318;DHT22;10818;50.830;6.524;2022-12-20T03:05:49;12.60;99.90
21318;DHT22;10818;50.830;6.524;2022-12-20T03:10:50;12.50;99.90
21318;DHT22;10818;50.830;6.524;2022-12-20T03:15:51;12.50;99.90
21318;DHT22;10818;50.830;6.524;2022-12-20T03:20:51;12.40;99.90
21318;DHT22;10818;50.830;6.524;2022-12-20T03:25:52;12.60;99.90
21318;DHT22;10818;50.830;6.524;2022-12-20T03:30:52;12.60;99.90
21318;DHT22;10818;50.830;6.524;2022-12-20T03:35:52;12.50;99.90
21318;DHT22;10818;50.830;6.524;2022-12-20T03:40:53;12.50;99.90
21318;DHT22;10818;50.830;6.524;2022-12-20T03:45:54;12.40;99.90
21318;DHT22;10818;50.830;6.524;2022-12-20T03:50:54;12.40;99.90
21318;DHT22;10818;50.830;6.524;2022-12-20T03:55:55;12.30;99.90
21318;DHT22;10818;50.830;6.524;2022-12-20T04:00:55;12.20;99.90
21318;DHT22;10818;50.830;6.524;2022-12-20T04:05:56;12.20;99.90
21318;DHT22;10818;50.830;6.524;2022-12-20T04:10:56;12.10;99.90
21318;DHT22;10818;50.830;6.524;2022-12-20T04:16:17;12.00;99.90
21318;DHT22;10818;50.830;6.524;2022-12-20T04:21:21;12.00;99.90
21318;DHT22;10818;50.830;6.524;2022-12-20T04:26:22;12.00;99.90
21318;DHT22;10818;50.830;6.524;2022-12-20T04:31:23;11.90;99.90
21318;DHT22;10818;50.830;6.524;2022-12-20T04:36:23;11.90;99.90
21318;DHT22;10818;50.830;6.524;2022-12-20T04:41:24;11.90;99.90
21318;DHT22;10818;50.830;6.524;2022-12-20T04:46:26;11.90;99.90
21318;DHT22;10818;50.830;6.524;2022-12-20T04:51:27;11.80;99.90
21318;DHT22;10818;50.830;6.524;2022-12-20T04:56:28;11.80;99.90
21318;DHT22;10818;50.830;6.524;2022-12-20T05:01:28;11.80;99.90
21318;DHT22;10818;50.830;6.524;2022-12-20T05:06:29;11.80;99.90
21318;DHT22;10818;50.830;6.524;2022-12-20T05:11:29;11.80;99.90
21318;DHT22;10818;50.830;6.524;2022-12-20T05:16:30;11.90;99.90
21318;DHT22;10818;50.830;6.524;2022-12-20T05:21:30;11.90;99.90
21318;DHT22;10818;50.830;6.524;2022-12-20T05:26:49;11.90;99.90
21318;DHT22;10818;50.830;6.524;2022-12-20T05:31:50;11.90;99.90
21318;DHT22;10818;50.830;6.524;2022-12-20T05:36:50;12.10;99.90
21318;DHT22;10818;50.830;6.524;2022-12-20T05:41:51;12.10;99.90
21318;DHT22;10818;50.830;6.524;2022-12-20T05:46:52;12.10;99.90
21318;DHT22;10818;50.830;6.524;2022-12-20T05:51:53;12.20;99.90
21318;DHT22;10818;50.830;6.524;2022-12-20T05:56:53;12.20;99.90
21318;DHT22;10818;50.830;6.524;2022-12-20T06:01:54;12.30;99.90
21318;DHT22;10818;50.830;6.524;2022-12-20T06:06:54;12.30;99.90
21318;DHT22;10818;50.830;6.524;2022-12-20T06:11:55;12.40;99.90
21318;DHT22;10818;50.830;6.524;2022-12-20T06:16:55;12.40;99.90
21318;DHT22;10818;50.830;6.524;2022-12-20T06:21:55;12.50;99.90
21318;DHT22;10818;50.830;6.524;2022-12-20T06:26:56;12.40;99.90
21318;DHT22;10818;50.830;6.524;2022-12-20T06:31:57;12.40;99.90
21318;DHT22;10818;50.830;6.524;2022-12-20T06:36:57;12.50;99.90
21318;DHT22;10818;50.830;6.524;2022-12-20T06:41:58;12.40;99.90
21318;DHT22;10818;50.830;6.524;2022-12-20T06:46:58;12.40;99.90
21318;DHT22;10818;50.830;6.524;2022-12-20T06:51:59;12.30;99.90
21318;DHT22;10818;50.830;6.524;2022-12-20T06:56:59;12.40;99.90
21318;DHT22;10818;50.830;6.524;2022-12-20T07:02:00;12.50;99.90
21318;DHT22;10818;50.830;6.524;2022-12-20T07:07:00;12.40;99.90
21318;DHT22;10818;50.830;6.524;2022-12-20T07:12:01;12.50;99.90
21318;DHT22;10818;50.830;6.524;2022-12-20T07:17:02;12.40;99.90
21318;DHT22;10818;50.830;6.524;2022-12-20T07:22:03;12.50;99.90
21318;DHT22;10818;50.830;6.524;2022-12-20T07:27:03;12.40;99.90
21318;DHT22;10818;50.830;6.524;2022-12-20T07:32:04;12.30;99.90
21318;DHT22;10818;50.830;6.524;2022-12-20T07:37:04;12.50;99.90
21318;DHT22;10818;50.830;6.524;2022-12-20T07:42:07;12.50;99.90
21318;DHT22;10818;50.830;6.524;2022-12-20T07:47:08;12.50;99.90
21318;DHT22;10818;50.830;6.524;2022-12-20T07:52:09;12.60;99.90
21318;DHT22;10818;50.830;6.524;2022-12-20T07:57:30;12.70;99.90
21318;DHT22;10818;50.830;6.524;2022-12-20T08:02:32;12.80;99.90
21318;DHT22;10818;50.830;6.524;2022-12-20T08:07:34;12.80;99.90
21318;DHT22;10818;50.830;6.524;2022-12-20T08:12:36;12.90;99.90
21318;DHT22;10818;50.830;6.524;2022-12-20T08:17:37;12.90;99.90
21318;DHT22;10818;50.830;6.524;2022-12-20T08:22:37;12.80;99.90
21318;DHT22;10818;50.830;6.524;2022-12-20T08:27:38;12.90;99.90
21318;DHT22;10818;50.830;6.524;2022-12-20T08:32:38;13.00;99.90
21318;DHT22;10818;50.830;6.524;2022-12-20T08:37:39;13.00;99.90
21318;DHT22;10818;50.830;6.524;2022-12-20T08:42:39;12.90;99.90
21318;DHT22;10818;50.830;6.524;2022-12-20T08:47:40;13.00;99.90
21318;DHT22;10818;50.830;6.524;2022-12-20T08:52:40;12.90;99.90
21318;DHT22;10818;50.830;6.524;2022-12-20T08:57:41;13.00;99.90
21318;DHT22;10818;50.830;6.524;2022-12-20T09:02:41;13.00;99.90
21318;DHT22;10818;50.830;6.524;2022-12-20T09:07:42;13.10;99.90
21318;DHT22;10818;50.830;6.524;2022-12-20T09:12:42;13.10;99.90
21318;DHT22;10818;50.830;6.524;2022-12-20T09:17:43;13.10;99.90
21318;DHT22;10818;50.830;6.524;2022-12-20T09:22:43;13.10;99.90
21318;DHT22;10818;50.830;6.524;2022-12-20T09:27:43;13.10;99.90
21318;DHT22;10818;50.830;6.524;2022-12-20T09:32:44;13.10;99.90
21318;DHT22;10818;50.830;6.524;2022-12-20T09:37:45;13.10;99.90
21318;DHT22;10818;50.830;6.524;2022-12-20T09:42:46;13.10;99.90
21318;DHT22;10818;50.830;6.524;2022-12-20T09:47:48;13.20;99.90
21318;DHT22;10818;50.830;6.524;2022-12-20T09:52:58;13.20;99.90
21318;DHT22;10818;50.830;6.524;2022-12-20T09:58:22;13.30;99.90
21318;DHT22;10818;50.830;6.524;2022-12-20T10:03:30;13.30;99.90
21318;DHT22;10818;50.830;6.524;2022-12-20T10:18:48;13.40;99.90
21318;DHT22;10818;50.830;6.524;2022-12-20T10:24:16;13.50;99.90
21318;DHT22;10818;50.830;6.524;2022-12-20T10:29:17;13.60;99.90
21318;DHT22;10818;50.830;6.524;2022-12-20T10:34:18;13.60;99.90
21318;DHT22;10818;50.830;6.524;2022-12-20T10:39:19;13.70;99.90
21318;DHT22;10818;50.830;6.524;2022-12-20T10:44:39;13.80;99.90
21318;DHT22;10818;50.830;6.524;2022-12-20T10:49:39;13.90;99.90
21318;DHT22;10818;50.830;6.524;2022-12-20T10:54:41;14.00;99.90
21318;DHT22;10818;50.830;6.524;2022-12-20T10:59:43;14.00;99.90
21318;DHT22;10818;50.830;6.524;2022-12-20T11:04:44;14.00;99.90
21318;DHT22;10818;50.830;6.524;2022-12-20T11:10:00;14.00;99.90
21318;DHT22;10818;50.830;6.524;2022-12-20T11:15:18;13.90;99.90
21318;DHT22;10818;50.830;6.524;2022-12-20T11:20:20;13.90;99.90
21318;DHT22;10818;50.830;6.524;2022-12-20T11:25:30;13.90;99.90
21318;DHT22;10818;50.830;6.524;2022-12-20T11:30:38;13.90;99.90
21318;DHT22;10818;50.830;6.524;2022-12-20T11:41:07;13.80;99.90
21318;DHT22;10818;50.830;6.524;2022-12-20T11:46:16;13.80;99.90
21318;DHT22;10818;50.830;6.524;2022-12-20T11:51:21;13.80;99.90
21318;DHT22;10818;50.830;6.524;2022-12-20T11:56:42;13.80;99.90
21318;DHT22;10818;50.830;6.524;2022-12-20T12:01:45;13.70;99.90
21318;DHT22;10818;50.830;6.524;2022-12-20T12:06:53;13.80;99.90
21318;DHT22;10818;50.830;6.524;2022-12-20T12:17:10;13.70;99.90
21318;DHT22;10818;50.830;6.524;2022-12-20T12:22:14;13.80;99.90
21318;DHT22;10818;50.830;6.524;2022-12-20T12:27:20;13.80;99.90
21318;DHT22;10818;50.830;6.524;2022-12-20T12:32:38;13.80;99.90
21318;DHT22;10818;50.830;6.524;2022-12-20T12:37:44;13.90;99.90
21318;DHT22;10818;50.830;6.524;2022-12-20T12:53:42;13.80;99.90
21318;DHT22;10818;50.830;6.524;2022-12-20T12:58:43;13.80;99.90
21318;DHT22;10818;50.830;6.524;2022-12-20T13:03:44;13.90;99.90
21318;DHT22;10818;50.830;6.524;2022-12-20T13:08:47;13.80;99.90
21318;DHT22;10818;50.830;6.524;2022-12-20T13:13:48;13.90;99.90
21318;DHT22;10818;50.830;6.524;2022-12-20T13:18:55;14.00;99.90
21318;DHT22;10818;50.830;6.524;2022-12-20T13:29:23;13.90;99.90
21318;DHT22;10818;50.830;6.524;2022-12-20T13:34:34;14.00;99.90
21318;DHT22;10818;50.830;6.524;2022-12-20T13:39:36;14.00;99.90
21318;DHT22;10818;50.830;6.524;2022-12-20T13:44:41;14.10;99.90
21318;DHT22;10818;50.830;6.524;2022-12-20T13:49:43;14.10;99.90
21318;DHT22;10818;50.830;6.524;2022-12-20T13:54:45;14.10;99.90
21318;DHT22;10818;50.830;6.524;2022-12-20T13:59:46;14.00;99.90
21318;DHT22;10818;50.830;6.524;2022-12-20T14:04:51;14.00;99.90
21318;DHT22;10818;50.830;6.524;2022-12-20T14:09:56;14.00;99.90
21318;DHT22;10818;50.830;6.524;2022-12-20T14:14:57;14.10;99.90
21318;DHT22;10818;50.830;6.524;2022-12-20T14:20:02;14.30;99.90
21318;DHT22;10818;50.830;6.524;2022-12-20T14:25:03;14.10;99.90
21318;DHT22;10818;50.830;6.524;2022-12-20T14:30:05;14.30;99.90
21318;DHT22;10818;50.830;6.524;2022-12-20T14:35:17;14.40;99.90
21318;DHT22;10818;50.830;6.524;2022-12-20T14:40:18;14.40;99.90
21318;DHT22;10818;50.830;6.524;2022-12-20T14:45:21;14.40;99.90
21318;DHT22;10818;50.830;6.524;2022-12-20T14:50:24;14.30;99.90
21318;DHT22;10818;50.830;6.524;2022-12-20T14:55:29;14.30;99.90
21318;DHT22;10818;50.830;6.524;2022-12-20T15:00:30;14.20;99.90
21318;DHT22;10818;50.830;6.524;2022-12-20T15:10:34;13.90;99.90
21318;DHT22;10818;50.830;6.524;2022-12-20T15:15:35;13.80;99.90
21318;DHT22;10818;50.830;6.524;2022-12-20T15:20:36;13.70;99.90
21318;DHT22;10818;50.830;6.524;2022-12-20T15:25:36;13.70;99.90
21318;DHT22;10818;50.830;6.524;2022-12-20T15:30:36;13.50;99.90
21318;DHT22;10818;50.830;6.524;2022-12-20T15:35:37;13.50;99.90
21318;DHT22;10818;50.830;6.524;2022-12-20T15:40:38;13.50;99.90
21318;DHT22;10818;50.830;6.524;2022-12-20T15:45:39;13.40;99.90
21318;DHT22;10818;50.830;6.524;2022-12-20T15:50:41;13.40;99.90
21318;DHT22;10818;50.830;6.524;2022-12-20T15:55:42;13.30;99.90
21318;DHT22;10818;50.830;6.524;2022-12-20T16:00:42;13.30;99.90
21318;DHT22;10818;50.830;6.524;2022-12-20T16:05:43;13.20;99.90
21318;DHT22;10818;50.830;6.524;2022-12-20T16:10:46;13.10;99.90
21318;DHT22;10818;50.830;6.524;2022-12-20T16:15:48;13.20;99.90
21318;DHT22;10818;50.830;6.524;2022-12-20T16:20:49;13.10;99.90
21318;DHT22;10818;50.830;6.524;2022-12-20T16:25:49;13.10;99.90
21318;DHT22;10818;50.830;6.524;2022-12-20T16:30:50;13.00;99.90
21318;DHT22;10818;50.830;6.524;2022-12-20T16:35:50;12.90;99.90
21318;DHT22;10818;50.830;6.524;2022-12-20T16:40:51;12.90;99.90
21318;DHT22;10818;50.830;6.524;2022-12-20T16:45:51;13.00;99.90
21318;DHT22;10818;50.830;6.524;2022-12-20T16:50:52;12.80;99.90
21318;DHT22;10818;50.830;6.524;2022-12-20T16:55:52;12.80;99.90
21318;DHT22;10818;50.830;6.524;2022-12-20T17:00:53;12.70;99.90
21318;DHT22;10818;50.830;6.524;2022-12-20T17:05:53;12.70;99.90
21318;DHT22;10818;50.830;6.524;2022-12-20T17:10:56;12.70;99.90
21318;DHT22;10818;50.830;6.524;2022-12-20T17:15:57;12.60;99.90
21318;DHT22;10818;50.830;6.524;2022-12-20T17:20:59;12.60;99.90
21318;DHT22;10818;50.830;6.524;2022-12-20T17:25:59;12.70;99.90
21318;DHT22;10818;50.830;6.524;2022-12-20T17:31:00;12.70;99.90
21318;DHT22;10818;50.830;6.524;2022-12-20T17:36:02;12.70;99.90
21318;DHT22;10818;50.830;6.524;2022-12-20T17:41:02;12.70;99.90
21318;DHT22;10818;50.830;6.524;2022-12-20T17:46:03;12.80;99.90
21318;DHT22;10818;50.830;6.524;2022-12-20T17:51:07;12.70;99.90
21318;DHT22;10818;50.830;6.524;2022-12-20T17:56:10;12.80;99.90
21318;DHT22;10818;50.830;6.524;2022-12-20T18:01:14;12.80;99.90
21318;DHT22;10818;50.830;6.524;2022-12-20T18:06:15;12.70;99.90
21318;DHT22;10818;50.830;6.524;2022-12-20T18:11:16;12.80;99.90
21318;DHT22;10818;50.830;6.524;2022-12-20T18:16:18;12.80;99.90
21318;DHT22;10818;50.830;6.524;2022-12-20T18:21:19;12.80;99.90
21318;DHT22;10818;50.830;6.524;2022-12-20T18:31:21;12.90;99.90
21318;DHT22;10818;50.830;6.524;2022-12-20T18:36:22;12.80;99.90
21318;DHT22;10818;50.830;6.524;2022-12-20T18:41:25;12.90;99.90
21318;DHT22;10818;50.830;6.524;2022-12-20T18:46:25;12.80;99.90
21318;DHT22;10818;50.830;6.524;2022-12-20T18:51:27;12.80;99.90
21318;DHT22;10818;50.830;6.524;2022-12-20T18:56:29;12.90;99.90
21318;DHT22;10818;50.830;6.524;2022-12-20T19:01:31;13.00;99.90
21318;DHT22;10818;50.830;6.524;2022-12-20T19:06:32;13.00;99.90
21318;DHT22;10818;50.830;6.524;2022-12-20T19:11:33;13.00;99.90
21318;DHT22;10818;50.830;6.524;2022-12-20T19:16:34;12.90;99.90
21318;DHT22;10818;50.830;6.524;2022-12-20T19:21:35;12.90;99.90
21318;DHT22;10818;50.830;6.524;2022-12-20T19:26:37;12.90;99.90
21318;DHT22;10818;50.830;6.524;2022-12-20T19:31:38;12.90;99.90
21318;DHT22;10818;50.830;6.524;2022-12-20T19:36:39;12.90;99.90
21318;DHT22;10818;50.830;6.524;2022-12-20T19:41:40;12.80;99.90
21318;DHT22;10818;50.830;6.524;2022-12-20T19:46:41;12.80;99.90
21318;DHT22;10818;50.830;6.524;2022-12-20T19:51:41;12.80;99.90
21318;DHT22;10818;50.830;6.524;2022-12-20T19:56:42;12.80;99.90
21318;DHT22;10818;50.830;6.524;2022-12-20T20:01:43;12.80;99.90
21318;DHT22;10818;50.830;6.524;2022-12-20T20:06:43;12.70;99.90
21318;DHT22;10818;50.830;6.524;2022-12-20T20:11:44;12.70;99.90
21318;DHT22;10818;50.830;6.524;2022-12-20T20:16:44;12.70;99.90
21318;DHT22;10818;50.830;6.524;2022-12-20T20:21:45;12.70;99.90
21318;DHT22;10818;50.830;6.524;2022-12-20T20:26:47;12.70;99.90
21318;DHT22;10818;50.830;6.524;2022-12-20T20:31:48;12.70;99.90
21318;DHT22;10818;50.830;6.524;2022-12-20T20:36:48;12.70;99.90
21318;DHT22;10818;50.830;6.524;2022-12-20T20:41:50;12.70;99.90
21318;DHT22;10818;50.830;6.524;2022-12-20T20:46:50;12.70;99.90
21318;DHT22;10818;50.830;6.524;2022-12-20T20:51:51;12.70;99.90
21318;DHT22;10818;50.830;6.524;2022-12-20T20:56:51;12.70;99.90
21318;DHT22;10818;50.830;6.524;2022-12-20T21:01:51;12.50;99.90
21318;DHT22;10818;50.830;6.524;2022-12-20T21:06:52;12.40;99.90
21318;DHT22;10818;50.830;6.524;2022-12-20T21:11:53;12.30;99.90
21318;DHT22;10818;50.830;6.524;2022-12-20T21:16:53;12.20;99.90
21318;DHT22;10818;50.830;6.524;2022-12-20T21:21:53;12.10;99.90
21318;DHT22;10818;50.830;6.524;2022-12-20T21:26:54;12.10;99.90
21318;DHT22;10818;50.830;6.524;2022-12-20T21:31:54;12.00;99.90
21318;DHT22;10818;50.830;6.524;2022-12-20T21:36:55;11.90;99.90
21318;DHT22;10818;50.830;6.524;2022-12-20T21:41:55;11.90;99.90
21318;DHT22;10818;50.830;6.524;2022-12-20T21:46:56;11.90;99.90
21318;DHT22;10818;50.830;6.524;2022-12-20T21:51:56;11.90;99.90
21318;DHT22;10818;50.830;6.524;2022-12-20T21:56:57;11.90;99.90
21318;DHT22;10818;50.830;6.524;2022-12-20T22:01:57;11.90;99.90
21318;DHT22;10818;50.830;6.524;2022-12-20T22:06:58;11.80;99.90
21318;DHT22;10818;50.830;6.524;2022-12-20T22:11:59;11.80;99.90
21318;DHT22;10818;50.830;6.524;2022-12-20T22:16:59;11.80;99.90
21318;DHT22;10818;50.830;6.524;2022-12-20T22:22:00;11.80;99.90
21318;DHT22;10818;50.830;6.524;2022-12-20T22:27:00;11.90;99.90
21318;DHT22;10818;50.830;6.524;2022-12-20T22:32:01;11.80;99.90
21318;DHT22;10818;50.830;6.524;2022-12-20T22:37:01;11.80;99.90
21318;DHT22;10818;50.830;6.524;2022-12-20T22:42:01;11.90;99.90
21318;DHT22;10818;50.830;6.524;2022-12-20T22:47:02;11.90;99.90
21318;DHT22;10818;50.830;6.524;2022-12-20T22:52:02;11.80;99.90
21318;DHT22;10818;50.830;6.524;2022-12-20T22:57:03;11.80;99.90
21318;DHT22;10818;50.830;6.524;2022-12-20T23:02:03;11.70;99.90
21318;DHT22;10818;50.830;6.524;2022-12-20T23:07:04;11.80;99.90
21318;DHT22;10818;50.830;6.524;2022-12-20T23:12:04;11.70;99.90
21318;DHT22;10818;50.830;6.524;2022-12-20T23:17:24;11.70;99.90
21318;DHT22;10818;50.830;6.524;2022-12-20T23:22:24;11.80;99.90
21318;DHT22;10818;50.830;6.524;2022-12-20T23:27:37;11.80;99.90
21318;DHT22;10818;50.830;6.524;2022-12-20T23:32:38;11.80;99.90
21318;DHT22;10818;50.830;6.524;2022-12-20T23:37:39;11.80;99.90
21318;DHT22;10818;50.830;6.524;2022-12-20T23:42:39;11.80;99.90
21318;DHT22;10818;50.830;6.524;2022-12-20T23:47:40;11.70;99.90
21318;DHT22;10818;50.830;6.524;2022-12-20T23:52:40;11.80;99.90
21318;DHT22;10818;50.830;6.524;2022-12-20T23:57:41;11.80;99.90
